createdAt,value
2018-04-25T00:01:21.504Z,5.20
2018-04-25T00:03:47.793Z,5.50
2018-04-25T00:06:14.073Z,4.00
2018-04-25T00:08:40.362Z,4.57
2018-04-25T00:11:06.610Z,4.47
2018-04-25T00:13:32.887Z,4.40
2018-04-25T00:15:59.255Z,4.50
2018-04-25T00:18:25.534Z,3.60
2018-04-25T00:20:51.778Z,2.93
2018-04-25T00:23:18.071Z,3.97
2018-04-25T00:25:44.335Z,3.87
2018-04-25T00:28:10.610Z,3.33
2018-04-25T00:30:36.847Z,3.33
2018-04-25T00:33:03.100Z,3.03
2018-04-25T00:35:29.379Z,3.50
2018-04-25T00:37:55.624Z,2.93
2018-04-25T00:40:21.898Z,3.60
2018-04-25T00:42:48.203Z,3.30
2018-04-25T00:45:14.504Z,3.40
2018-04-25T00:47:40.798Z,3.17
2018-04-25T00:50:07.151Z,3.07
2018-04-25T00:52:33.427Z,3.03
2018-04-25T00:54:59.695Z,3.67
2018-04-25T00:57:26.019Z,4.23
2018-04-25T00:59:52.290Z,3.70
2018-04-25T01:02:18.588Z,3.60
2018-04-25T01:04:44.874Z,3.20
2018-04-25T01:07:11.175Z,3.80
2018-04-25T01:09:37.444Z,2.60
2018-04-25T01:12:03.792Z,2.93
2018-04-25T01:14:30.060Z,3.20
2018-04-25T01:16:56.322Z,3.00
2018-04-25T01:19:22.623Z,3.87
2018-04-25T01:21:49.710Z,4.00
2018-04-25T01:24:16.004Z,3.73
2018-04-25T01:26:42.287Z,3.40
2018-04-25T01:29:08.599Z,3.17
2018-04-25T01:31:48.081Z,2.83
2018-04-25T01:34:18.363Z,3.37
2018-04-25T01:36:56.395Z,3.43
2018-04-25T01:39:43.247Z,3.00
2018-04-25T01:42:21.554Z,3.10
2018-04-25T01:44:51.818Z,2.80
2018-04-25T01:47:33.966Z,3.00
2018-04-25T04:21:19.535Z,3.67
2018-04-25T04:23:45.863Z,3.27
2018-04-25T04:26:12.112Z,3.90
2018-04-25T04:28:38.375Z,3.43
2018-04-25T04:31:04.591Z,3.67
2018-04-25T04:33:30.811Z,3.83
2018-04-25T04:35:57.054Z,3.47
2018-04-25T04:38:23.271Z,3.70
2018-04-25T04:40:49.485Z,3.60
2018-04-25T04:43:15.753Z,3.40
2018-04-25T04:45:41.978Z,3.47
2018-04-25T04:48:08.208Z,3.57
2018-04-25T04:50:34.466Z,3.20
2018-04-25T04:53:00.693Z,3.83
2018-04-25T04:55:26.919Z,3.87
2018-04-25T04:57:53.170Z,3.43
2018-04-25T05:00:19.399Z,3.20
2018-04-25T05:02:45.639Z,3.60
2018-04-25T05:05:11.902Z,3.23
2018-04-25T05:07:38.124Z,3.50
2018-04-25T05:10:04.376Z,3.80
2018-04-25T05:12:30.630Z,3.53
2018-04-25T05:14:56.934Z,3.50
2018-04-25T05:17:23.182Z,3.90
2018-04-25T05:19:49.444Z,3.17
2018-04-25T05:22:15.703Z,3.53
2018-04-25T05:24:41.977Z,3.97
2018-04-25T05:27:08.218Z,3.60
2018-04-25T05:29:34.448Z,3.43
2018-04-25T05:32:00.740Z,3.50
2018-04-25T05:34:26.983Z,3.10
2018-04-25T05:36:53.219Z,3.60
2018-04-25T05:39:19.444Z,3.57
2018-04-25T05:41:45.708Z,4.40
2018-04-25T05:44:11.934Z,3.80
2018-04-25T05:46:38.183Z,3.57
2018-04-25T05:49:04.447Z,4.17
2018-04-25T05:51:30.719Z,4.03
2018-04-25T05:53:56.951Z,3.73
2018-04-25T05:56:23.203Z,3.80
2018-04-25T05:58:49.439Z,3.80
2018-04-25T06:01:15.667Z,3.40
2018-04-25T06:03:41.918Z,3.33
2018-04-25T06:06:08.135Z,3.80
2018-04-25T06:08:34.362Z,3.70
2018-04-25T06:11:00.615Z,3.47
2018-04-25T06:13:26.835Z,3.73
2018-04-25T06:15:53.099Z,8.37
2018-04-25T06:18:19.363Z,3.53
2018-04-25T06:20:45.591Z,4.20
2018-04-25T06:23:11.842Z,3.77
2018-04-25T06:25:38.097Z,4.10
2018-04-25T06:28:04.322Z,4.00
2018-04-25T06:30:30.550Z,3.57
2018-04-25T06:32:56.807Z,3.83
2018-04-25T06:35:23.057Z,3.67
2018-04-25T06:37:49.304Z,3.90
2018-04-25T06:40:15.559Z,4.30
2018-04-25T06:42:41.787Z,3.80
2018-04-25T06:45:08.044Z,3.70
2018-04-25T06:47:34.315Z,3.90
2018-04-25T06:50:00.539Z,3.90
2018-04-25T06:52:26.767Z,4.63
2018-04-25T06:54:53.023Z,4.37
2018-04-25T06:57:19.263Z,4.13
2018-04-25T06:59:45.496Z,3.73
2018-04-25T07:02:11.751Z,3.90
2018-04-25T07:04:37.993Z,4.23
2018-04-25T07:07:04.242Z,4.37
2018-04-25T07:09:30.509Z,3.60
2018-04-25T07:11:56.743Z,3.90
2018-04-25T07:14:22.975Z,4.50
2018-04-25T07:16:49.233Z,4.40
2018-04-25T07:19:15.510Z,4.00
2018-04-25T07:21:41.739Z,4.33
2018-04-25T07:24:07.998Z,4.30
2018-04-25T07:26:34.235Z,4.60
2018-04-25T07:29:00.464Z,4.10
2018-04-25T07:31:26.729Z,5.00
2018-04-25T07:33:52.968Z,4.63
2018-04-25T07:36:19.201Z,3.87
2018-04-25T07:38:45.467Z,4.90
2018-04-25T07:41:11.698Z,4.00
2018-04-25T07:43:37.927Z,4.30
2018-04-25T07:46:04.195Z,4.40
2018-04-25T07:48:30.458Z,4.57
2018-04-25T07:50:56.688Z,3.40
2018-04-25T07:53:22.946Z,4.07
2018-04-25T07:55:49.191Z,4.10
2018-04-25T07:58:15.423Z,4.27
2018-04-25T08:00:41.699Z,3.83
2018-04-25T08:03:08.894Z,4.23
2018-04-25T08:05:35.122Z,4.37
2018-04-25T08:08:01.390Z,4.47
2018-04-25T08:10:27.647Z,4.37
2018-04-25T08:13:06.139Z,4.17
2018-04-25T08:15:44.743Z,4.23
2018-04-25T08:18:23.333Z,3.60
2018-04-25T08:34:14.463Z,3.30
2018-04-25T08:36:40.737Z,3.33
2018-04-25T08:39:06.995Z,3.20
2018-04-25T08:41:33.250Z,3.60
2018-04-25T08:43:59.480Z,5.07
2018-04-25T08:46:25.712Z,3.80
2018-04-25T08:48:52.067Z,4.30
2018-04-25T08:51:18.291Z,3.23
2018-04-25T08:53:44.522Z,3.80
2018-04-25T08:56:10.802Z,4.35
2018-04-25T08:58:37.027Z,3.83
2018-04-25T09:01:03.275Z,3.80
2018-04-25T09:03:29.624Z,3.80
2018-04-25T09:05:55.879Z,3.77
2018-04-25T09:08:22.103Z,3.50
2018-04-25T09:10:48.366Z,3.80
2018-04-25T09:13:14.662Z,4.00
2018-04-25T09:15:40.874Z,3.50
2018-04-25T09:18:07.143Z,3.70
2018-04-25T09:20:33.407Z,4.37
2018-04-25T09:22:59.643Z,3.70
2018-04-25T09:25:25.903Z,4.30
2018-04-25T09:27:52.134Z,3.50
2018-04-25T09:30:18.366Z,3.67
2018-04-25T09:32:44.631Z,3.20
2018-04-25T09:35:10.875Z,3.20
2018-04-25T09:37:37.115Z,4.00
2018-04-25T09:40:03.427Z,4.00
2018-04-25T09:42:29.655Z,3.63
2018-04-25T09:44:55.895Z,3.57
2018-04-25T09:47:22.163Z,3.40
2018-04-25T09:49:48.400Z,3.50
2018-04-25T09:52:14.631Z,3.83
2018-04-25T09:54:40.902Z,3.67
2018-04-25T09:57:07.147Z,3.30
2018-04-25T09:59:33.379Z,4.10
2018-04-25T10:02:02.591Z,3.80
2018-04-25T10:04:28.866Z,3.97
2018-04-25T10:06:55.099Z,3.57
2018-04-25T10:09:21.366Z,3.30
2018-04-25T10:11:47.625Z,3.47
2018-04-25T10:14:13.867Z,3.87
2018-04-25T10:16:40.137Z,3.80
2018-04-25T10:19:06.379Z,4.23
2018-04-25T10:21:32.652Z,4.10
2018-04-25T10:23:58.919Z,3.90
2018-04-25T10:26:25.187Z,3.80
2018-04-25T10:28:51.433Z,3.57
2018-04-25T10:31:17.783Z,3.87
2018-04-25T10:33:44.016Z,3.37
2018-04-25T10:36:10.259Z,4.30
2018-04-25T10:38:36.531Z,3.17
2018-04-25T10:41:09.898Z,3.20
2018-04-25T10:43:36.163Z,2.90
2018-04-25T10:46:02.411Z,3.03
2018-04-25T10:48:28.639Z,2.80
2018-04-25T10:50:54.910Z,3.10
2018-04-25T10:53:21.147Z,3.53
2018-04-25T10:55:47.382Z,3.03
2018-04-25T10:58:13.649Z,2.97
2018-04-25T11:00:39.893Z,3.10
2018-04-25T11:03:06.128Z,2.77
2018-04-25T11:05:32.387Z,2.87
2018-04-25T11:07:58.623Z,2.63
2018-04-25T11:10:24.871Z,2.93
2018-04-25T11:12:51.134Z,2.70
2018-04-25T11:15:17.366Z,2.57
2018-04-25T11:17:43.606Z,3.07
2018-04-25T11:20:09.926Z,2.93
2018-04-25T11:22:36.159Z,2.70
2018-04-25T11:25:02.403Z,3.10
2018-04-25T11:27:28.675Z,3.27
2018-04-25T11:29:54.902Z,3.00
2018-04-25T11:32:21.139Z,2.90
2018-04-25T11:34:47.403Z,2.90
2018-04-25T11:37:13.643Z,3.47
2018-04-25T11:39:39.877Z,3.67
2018-04-25T11:42:06.144Z,3.63
2018-04-25T11:44:32.383Z,3.50
2018-04-25T11:46:58.616Z,3.37
2018-04-25T11:49:24.870Z,3.27
2018-04-25T11:51:51.090Z,3.23
2018-04-25T11:54:17.329Z,3.60
2018-04-25T11:56:43.587Z,3.30
2018-04-25T11:59:09.819Z,3.17
2018-04-25T12:01:36.052Z,3.50
2018-04-25T12:04:02.386Z,3.25
2018-04-25T12:06:28.623Z,3.45
2018-04-25T12:08:54.850Z,3.12
2018-04-25T12:11:21.110Z,3.03
2018-04-25T12:13:47.399Z,2.90
2018-04-25T12:16:13.650Z,4.12
2018-04-25T12:18:39.979Z,3.10
2018-04-25T12:21:06.195Z,3.00
2018-04-25T12:23:32.430Z,2.70
2018-04-25T12:25:58.691Z,2.50
2018-04-25T12:28:24.925Z,3.10
2018-04-25T12:30:51.155Z,2.90
2018-04-25T12:33:17.419Z,2.60
2018-04-25T12:35:43.712Z,2.95
2018-04-25T12:38:09.908Z,3.00
2018-04-25T12:40:36.167Z,2.78
2018-04-25T12:43:02.414Z,3.08
2018-04-25T12:45:28.646Z,2.93
2018-04-25T12:47:54.906Z,2.80
2018-04-25T12:50:21.134Z,2.60
2018-04-25T12:52:47.371Z,2.40
2018-04-25T12:55:13.639Z,2.70
2018-04-25T12:57:39.956Z,2.47
2018-04-25T13:00:06.207Z,2.60
2018-04-25T13:02:39.435Z,2.67
2018-04-25T13:05:05.681Z,2.93
2018-04-25T13:07:31.912Z,3.17
2018-04-25T13:09:58.180Z,2.67
2018-04-25T13:12:24.407Z,3.13
2018-04-25T13:14:50.644Z,3.00
2018-04-25T13:17:16.930Z,2.47
2018-04-25T13:19:43.163Z,2.63
2018-04-25T13:22:09.409Z,2.70
2018-04-25T13:24:35.683Z,3.93
2018-04-25T13:27:01.923Z,3.27
2018-04-25T13:29:28.199Z,2.90
2018-04-25T13:31:54.465Z,3.13
2018-04-25T13:34:20.691Z,3.03
2018-04-25T13:36:46.927Z,2.97
2018-04-25T13:39:13.188Z,2.90
2018-04-25T13:41:39.424Z,3.10
2018-04-25T13:44:05.662Z,3.30
2018-04-25T13:46:31.965Z,2.60
2018-04-25T13:48:58.209Z,3.00
2018-04-25T13:51:24.438Z,3.77
2018-04-25T13:53:50.696Z,3.63
2018-04-25T13:56:16.935Z,3.50
2018-04-25T13:58:43.183Z,3.40
2018-04-25T14:01:09.439Z,3.10
2018-04-25T14:03:35.671Z,3.30
2018-04-25T14:06:01.933Z,3.30
2018-04-25T14:08:28.178Z,2.50
2018-04-25T14:10:54.439Z,2.60
2018-04-25T14:13:20.671Z,3.13
2018-04-25T14:15:46.936Z,3.30
2018-04-25T14:18:13.160Z,3.37
2018-04-25T14:20:39.423Z,3.50
2018-04-25T14:23:05.688Z,3.37
2018-04-25T14:25:31.911Z,3.17
2018-04-25T14:27:58.131Z,2.90
2018-04-25T14:30:24.480Z,2.87
2018-04-25T14:32:50.655Z,2.90
2018-04-25T14:35:16.915Z,2.90
2018-04-25T14:37:43.170Z,3.20
2018-04-25T14:40:09.394Z,2.77
2018-04-25T14:42:35.623Z,2.93
2018-04-25T14:45:01.892Z,3.40
2018-04-25T14:47:28.114Z,3.00
2018-04-25T14:49:54.343Z,2.97
2018-04-25T14:52:20.598Z,3.70
2018-04-25T14:54:46.827Z,3.00
2018-04-25T14:57:13.075Z,2.77
2018-04-25T14:59:39.347Z,2.83
2018-04-25T15:02:05.597Z,2.70
2018-04-25T15:04:31.848Z,2.67
2018-04-25T15:06:58.106Z,2.83
2018-04-25T15:09:24.344Z,2.63
2018-04-25T15:11:50.590Z,2.77
2018-04-25T15:14:16.851Z,2.00
2018-04-25T15:16:43.268Z,2.03
2018-04-25T15:19:09.682Z,2.03
2018-04-25T15:21:35.999Z,9.87
2018-04-25T15:24:02.252Z,1.63
2018-04-25T15:26:28.519Z,1.47
2018-04-25T15:28:54.774Z,1.20
2018-04-25T15:31:21.003Z,1.23
2018-04-25T15:33:47.226Z,1.10
2018-04-25T15:36:13.563Z,1.30
2018-04-25T15:38:39.756Z,1.40
2018-04-25T15:41:05.983Z,1.20
2018-04-25T15:43:32.250Z,1.20
2018-04-25T15:45:58.611Z,1.40
2018-04-25T15:48:24.875Z,1.30
2018-04-25T15:50:51.179Z,7.50
2018-04-25T15:53:17.456Z,1.53
2018-04-25T15:55:43.740Z,0.93
2018-04-25T15:58:10.026Z,1.20
2018-04-25T16:00:36.259Z,1.07
2018-04-25T16:03:02.733Z,1.13
2018-04-25T16:05:29.005Z,1.10
2018-04-25T16:07:56.330Z,1.10
2018-04-25T16:10:22.632Z,1.63
2018-04-25T16:12:48.891Z,1.10
2018-04-25T16:15:15.170Z,1.20
2018-04-25T16:17:48.306Z,1.70
2018-04-25T16:20:14.555Z,1.30
2018-04-25T16:22:40.809Z,1.70
2018-04-25T16:25:07.098Z,1.20
2018-04-25T16:27:33.318Z,1.47
2018-04-25T16:29:59.559Z,1.90
2018-04-25T16:32:25.835Z,1.70
2018-04-25T16:34:52.419Z,1.73
2018-04-25T16:37:18.707Z,1.80
2018-04-25T16:39:44.962Z,1.83
2018-04-25T16:42:11.186Z,1.67
2018-04-25T16:44:37.488Z,1.90
2018-04-25T16:47:03.763Z,2.13
2018-04-25T16:49:30.343Z,2.73
2018-04-25T16:51:56.753Z,2.33
2018-04-25T16:54:23.018Z,2.77
2018-04-25T16:56:49.440Z,3.30
2018-04-25T16:59:15.674Z,3.30
2018-04-25T17:01:42.079Z,3.23
2018-04-25T17:04:08.311Z,2.80
2018-04-25T17:06:34.834Z,4.17
2018-04-25T17:09:01.268Z,5.03
2018-04-25T17:11:27.727Z,5.07
2018-04-25T17:13:54.015Z,5.47
2018-04-25T17:16:20.290Z,6.13
2018-04-25T17:18:46.686Z,6.00
2018-04-25T17:21:12.966Z,5.90
2018-04-25T17:23:39.255Z,6.07
2018-04-25T17:26:05.812Z,6.43
2018-04-25T17:28:32.054Z,6.33
2018-04-25T17:30:58.314Z,6.20
2018-04-25T17:33:24.862Z,6.57
2018-04-25T17:35:51.090Z,5.87
2018-04-25T17:38:17.355Z,6.50
2018-04-25T17:40:43.925Z,5.27
2018-04-25T17:43:10.167Z,6.57
2018-04-25T17:45:36.626Z,5.20
2018-04-25T17:48:02.918Z,5.00
2018-04-25T17:50:29.142Z,5.43
2018-04-25T17:52:55.395Z,5.37
2018-04-25T17:55:21.966Z,5.93
2018-04-25T17:57:48.215Z,6.90
2018-04-25T18:00:14.495Z,6.50
2018-04-25T18:02:40.719Z,6.37
2018-04-25T18:05:06.959Z,6.60
2018-04-25T18:07:33.323Z,6.47
2018-04-25T18:09:59.569Z,7.20
2018-04-25T18:12:25.798Z,6.40
2018-04-25T18:14:52.067Z,7.17
2018-04-25T18:17:18.319Z,6.90
2018-04-25T18:19:44.539Z,7.27
2018-04-25T18:22:10.800Z,7.80
2018-04-25T18:24:37.081Z,7.10
2018-04-25T18:27:03.354Z,6.83
2018-04-25T18:29:29.646Z,6.93
2018-04-25T18:31:55.944Z,6.93
2018-04-25T18:34:22.199Z,6.03
2018-04-25T18:36:48.643Z,7.80
2018-04-25T18:39:14.987Z,7.07
2018-04-25T18:41:41.258Z,6.33
2018-04-25T18:44:07.625Z,7.27
2018-04-25T18:46:33.946Z,11.23
2018-04-25T18:49:00.535Z,14.47
2018-04-25T18:51:26.810Z,10.93
2018-04-25T18:53:53.035Z,11.47
2018-04-25T18:56:19.705Z,8.13
2018-04-25T18:58:46.251Z,6.97
2018-04-25T19:01:12.554Z,7.57
2018-04-25T19:03:38.871Z,8.13
2018-04-25T19:06:05.192Z,6.63
2018-04-25T19:08:31.480Z,7.43
2018-04-25T19:10:57.803Z,8.60
2018-04-25T19:13:24.226Z,7.07
2018-04-25T19:15:50.660Z,6.50
2018-04-25T19:18:16.897Z,7.77
2018-04-25T19:20:43.393Z,5.77
2018-04-25T19:23:09.639Z,5.90
2018-04-25T19:25:36.144Z,6.43
2018-04-25T19:28:02.444Z,5.93
2018-04-25T19:30:28.659Z,6.63
2018-04-25T19:32:54.922Z,5.57
2018-04-25T19:35:21.182Z,5.33
2018-04-25T19:37:47.440Z,5.43
2018-04-25T19:40:13.969Z,6.27
2018-04-25T19:42:40.237Z,5.00
2018-04-25T19:45:06.653Z,5.27
2018-04-25T19:47:33.132Z,5.80
2018-04-25T19:49:59.466Z,5.43
2018-04-25T19:52:25.768Z,6.20
2018-04-25T19:54:52.078Z,5.90
2018-04-25T19:57:18.425Z,5.23
2018-04-25T19:59:44.683Z,5.70
2018-04-25T20:02:10.912Z,6.30
2018-04-25T20:04:37.338Z,6.40
2018-04-25T20:07:03.678Z,5.47
2018-04-25T20:09:29.903Z,6.20
2018-04-25T20:11:56.425Z,5.43
2018-04-25T20:14:22.674Z,6.40
2018-04-25T20:16:49.036Z,4.00
2018-04-25T20:19:15.385Z,5.40
2018-04-25T20:21:41.838Z,5.43
2018-04-25T20:24:08.200Z,4.43
2018-04-25T20:26:34.474Z,4.30
2018-04-25T20:29:00.935Z,4.43
2018-04-25T20:31:27.310Z,4.83
2018-04-25T20:33:53.744Z,4.87
2018-04-25T20:36:20.045Z,3.70
2018-04-25T20:38:46.431Z,4.30
2018-04-25T20:41:12.690Z,4.17
2018-04-25T20:43:39.169Z,3.60
2018-04-25T20:46:05.708Z,3.80
2018-04-25T20:48:32.130Z,4.40
2018-04-25T20:50:58.530Z,3.63
2018-04-25T20:53:25.016Z,4.20
2018-04-25T20:55:51.278Z,4.80
2018-04-25T20:58:17.646Z,3.77
2018-04-25T21:00:44.019Z,3.90
2018-04-25T21:03:10.686Z,3.83
2018-04-25T21:05:37.288Z,4.10
2018-04-25T21:08:03.783Z,4.30
2018-04-25T21:10:30.406Z,4.00
2018-04-25T21:12:56.670Z,4.47
2018-04-25T21:15:23.053Z,4.40
2018-04-25T21:17:49.360Z,4.27
2018-04-25T21:20:15.756Z,3.90
2018-04-25T21:22:41.999Z,4.43
2018-04-25T21:25:08.275Z,5.27
2018-04-25T21:27:34.833Z,4.70
2018-04-25T21:30:01.299Z,4.80
2018-04-25T21:32:27.891Z,4.80
2018-04-25T21:34:54.163Z,5.63
2018-04-25T21:37:20.556Z,5.07
2018-04-25T21:39:46.819Z,4.50
2018-04-25T21:42:13.338Z,4.53
2018-04-25T21:44:39.687Z,5.33
2018-04-25T21:47:05.986Z,4.93
2018-04-25T21:49:32.395Z,5.83
2018-04-25T21:51:58.636Z,5.07
2018-04-25T21:54:25.163Z,5.33
2018-04-25T21:56:51.452Z,6.33
2018-04-25T21:59:17.981Z,6.13
2018-04-25T22:01:44.339Z,6.60
2018-04-25T22:04:10.709Z,11.03
2018-04-25T22:06:36.965Z,6.70
2018-04-25T22:09:03.324Z,7.43
2018-04-25T22:11:30.991Z,7.20
2018-04-25T22:13:57.500Z,6.93
2018-04-25T22:16:23.841Z,8.40
2018-04-25T22:18:50.167Z,6.80
2018-04-25T22:21:16.432Z,7.10
2018-04-25T22:23:42.737Z,6.77
2018-04-25T22:26:09.102Z,7.47
2018-04-25T22:28:35.375Z,6.30
2018-04-25T22:31:02.856Z,6.97
2018-04-25T22:33:29.141Z,6.93
2018-04-25T22:35:55.463Z,7.70
2018-04-25T22:38:21.835Z,6.80
2018-04-25T22:40:48.156Z,6.77
2018-04-25T22:43:14.642Z,6.73
2018-04-25T22:45:40.968Z,6.50
2018-04-25T22:48:07.455Z,5.80
2018-04-25T22:50:33.718Z,6.53
2018-04-25T22:53:00.021Z,7.83
2018-04-25T22:55:27.492Z,6.70
2018-04-25T22:57:53.776Z,6.53
2018-04-25T23:00:20.187Z,6.37
2018-04-25T23:02:46.563Z,7.30
2018-04-25T23:05:13.048Z,5.77
2018-04-25T23:07:39.456Z,6.03
2018-04-25T23:10:05.719Z,6.07
2018-04-25T23:12:32.207Z,6.47
2018-04-25T23:14:58.508Z,6.30
2018-04-25T23:17:25.058Z,5.83
2018-04-25T23:19:51.374Z,5.80
2018-04-25T23:22:17.959Z,7.10
2018-04-25T23:24:44.304Z,6.13
2018-04-25T23:27:10.568Z,5.87
2018-04-25T23:29:36.986Z,6.00
2018-04-25T23:32:03.320Z,5.47
2018-04-25T23:34:29.576Z,6.30
2018-04-25T23:36:56.206Z,6.40
2018-04-25T23:39:22.809Z,6.00
2018-04-25T23:41:49.279Z,5.80
2018-04-25T23:44:15.566Z,5.83
2018-04-25T23:46:42.056Z,5.60
2018-04-25T23:49:08.313Z,5.53
2018-04-25T23:51:34.727Z,7.27
2018-04-25T23:54:01.059Z,5.37
2018-04-25T23:56:27.491Z,5.20
2018-04-25T23:58:53.812Z,6.50
